Time;durP1;ratioP1;P1;durP2;ratioP2;P2;SDS_P1;SDS_P2;PMS_P1;PMS_P2;Temp;Humidity;BMP_temperature;BMP_pressure;BME280_temperature;BME280_humidity;BME280_pressure;Samples;Min_cycle;Max_cycle;Signal;HPM_P1;HPM_P2
2023/01/07 00:02:11;;;;;;;10.00;1.70;;;;;;;;;;5013472;28;20140;-90
2023/01/07 00:04:36;;;;;;;6.60;1.42;;;;;;;;;;5010281;28;20054;-90
2023/01/07 00:07:01;;;;;;;5.57;1.50;;;;;;;;;;5016583;28;20071;-90
2023/01/07 00:09:27;;;;;;;5.55;1.50;;;;;;;;;;4992892;28;20034;-90
2023/01/07 00:11:52;;;;;;;7.00;1.45;;;;;;;;;;5014531;28;20029;-90
2023/01/07 00:14:17;;;;;;;9.27;1.70;;;;;;;;;;5012318;28;20025;-90
2023/01/07 00:16:43;;;;;;;7.25;2.13;;;;;;;;;;4994585;28;20025;-90
2023/01/07 00:19:11;;;;;;;6.45;1.50;;;;;;;;;;4998522;28;20543;-90
2023/01/07 00:21:36;;;;;;;6.60;1.70;;;;;;;;;;4995614;28;20022;-89
2023/01/07 00:24:03;;;;;;;6.95;1.67;;;;;;;;;;4997282;28;20099;-90
2023/01/07 00:26:31;;;;;;;7.32;1.30;;;;;;;;;;5016825;28;20550;-91
2023/01/07 00:28:56;;;;;;;6.32;1.60;;;;;;;;;;5014702;28;20029;-90
2023/01/07 00:31:23;;;;;;;6.68;1.50;;;;;;;;;;5010451;28;20032;-90
2023/01/07 00:36:27;;;;;;;10.50;2.03;;;;;;;;;;5014661;28;20040;-90
2023/01/07 00:38:54;;;;;;;9.82;2.08;;;;;;;;;;5003742;28;20025;-90
2023/01/07 00:41:19;;;;;;;9.13;1.77;;;;;;;;;;4996906;28;20425;-89
2023/01/07 00:43:44;;;;;;;8.35;1.98;;;;;;;;;;5002534;28;20040;-90
2023/01/07 00:46:11;;;;;;;9.15;1.75;;;;;;;;;;5004947;28;20024;-89
2023/01/07 00:48:36;;;;;;;7.90;1.67;;;;;;;;;;5006145;28;20599;-89
2023/01/07 00:51:02;;;;;;;6.68;1.42;;;;;;;;;;5005105;28;20025;-90
2023/01/07 00:53:29;;;;;;;8.80;1.48;;;;;;;;;;5017772;28;20030;-90
2023/01/07 00:55:54;;;;;;;6.82;1.50;;;;;;;;;;5018698;28;20093;-90
2023/01/07 00:58:20;;;;;;;6.55;1.50;;;;;;;;;;5022659;28;20128;-89
2023/01/07 01:00:46;;;;;;;5.60;1.40;;;;;;;;;;5020564;28;20828;-90
2023/01/07 01:03:11;;;;;;;8.70;1.60;;;;;;;;;;5001807;28;20033;-90
2023/01/07 01:05:37;;;;;;;7.72;1.65;;;;;;;;;;5020099;28;20057;-89
2023/01/07 01:08:02;;;;;;;6.90;1.88;;;;;;;;;;5012554;28;20045;-90
2023/01/07 01:10:27;;;;;;;9.23;1.60;;;;;;;;;;5016915;28;20034;-89
2023/01/07 01:12:53;;;;;;;7.53;1.83;;;;;;;;;;4999267;28;20033;-89
2023/01/07 01:15:18;;;;;;;7.95;1.92;;;;;;;;;;5021267;28;20120;-89
2023/01/07 01:17:44;;;;;;;7.25;1.92;;;;;;;;;;5010467;28;20028;-90
2023/01/07 01:20:10;;;;;;;6.30;2.05;;;;;;;;;;4999698;28;20389;-89
2023/01/07 01:22:36;;;;;;;10.27;2.00;;;;;;;;;;4994064;28;20164;-89
2023/01/07 01:25:01;;;;;;;11.38;2.20;;;;;;;;;;5010538;28;20108;-89
2023/01/07 01:27:28;;;;;;;8.38;1.88;;;;;;;;;;5022857;28;20040;-89
2023/01/07 01:29:53;;;;;;;8.68;2.28;;;;;;;;;;5013628;28;20026;-89
2023/01/07 01:32:19;;;;;;;8.07;1.77;;;;;;;;;;4993587;28;20497;-89
2023/01/07 01:34:44;;;;;;;8.70;1.95;;;;;;;;;;4994640;28;20029;-89
2023/01/07 01:37:09;;;;;;;10.52;2.35;;;;;;;;;;5017023;28;20025;-89
2023/01/07 01:39:35;;;;;;;8.75;2.03;;;;;;;;;;5012983;28;20147;-89
2023/01/07 01:42:00;;;;;;;10.10;1.98;;;;;;;;;;5002433;28;20029;-89
2023/01/07 01:44:46;;;;;;;7.47;1.90;;;;;;;;;;5001463;28;20052;-89
2023/01/07 01:47:30;;;;;;;7.50;1.92;;;;;;;;;;5012937;28;20087;-89
2023/01/07 01:50:02;;;;;;;9.90;1.88;;;;;;;;;;5013977;28;20026;-89
2023/01/07 01:52:33;;;;;;;7.15;1.80;;;;;;;;;;5008251;28;20029;-89
2023/01/07 01:54:59;;;;;;;6.63;1.63;;;;;;;;;;5015139;28;20069;-90
2023/01/07 01:57:27;;;;;;;7.55;1.88;;;;;;;;;;5004393;28;20440;-89
2023/01/07 01:59:53;;;;;;;9.10;1.52;;;;;;;;;;5019475;28;20025;-90
2023/01/07 02:02:29;;;;;;;6.82;1.73;;;;;;;;;;5018025;28;20035;-88
2023/01/07 02:04:55;;;;;;;7.05;1.48;;;;;;;;;;5021147;28;20056;-89
2023/01/07 02:07:20;;;;;;;7.90;1.67;;;;;;;;;;5014224;28;20033;-90
2023/01/07 02:09:49;;;;;;;7.30;1.60;;;;;;;;;;4998143;28;20026;-89
2023/01/07 02:12:35;;;;;;;5.90;1.50;;;;;;;;;;5011495;28;20025;-88
2023/01/07 02:15:01;;;;;;;8.13;1.73;;;;;;;;;;4998809;28;20088;-91
2023/01/07 02:17:37;;;;;;;5.93;1.63;;;;;;;;;;4997975;28;20125;-91
2023/01/07 02:20:08;;;;;;;7.75;1.73;;;;;;;;;;5001267;28;20021;-91
2023/01/07 02:22:39;;;;;;;8.07;1.92;;;;;;;;;;5022138;28;20025;-90
2023/01/07 02:25:05;;;;;;;6.65;1.77;;;;;;;;;;5001363;28;20029;-91
2023/01/07 02:27:48;;;;;;;7.00;1.50;;;;;;;;;;5013674;28;20017;-90
2023/01/07 02:30:13;;;;;;;;;;;;;;;;;;5026745;28;20041;-88
2023/01/07 02:32:48;;;;;;;8.48;2.20;;;;;;;;;;5016052;28;19924;-90
2023/01/07 02:35:19;;;;;;;7.35;1.50;;;;;;;;;;4997743;28;20144;-90
2023/01/07 02:37:59;;;;;;;6.18;1.67;;;;;;;;;;5015250;28;20109;-90
2023/01/07 02:40:28;;;;;;;9.48;1.60;;;;;;;;;;5002515;28;20025;-90
2023/01/07 02:42:56;;;;;;;11.32;2.08;;;;;;;;;;5001336;28;20488;-90
2023/01/07 02:45:34;;;;;;;7.53;2.10;;;;;;;;;;5000471;28;20080;-91
2023/01/07 02:48:08;;;;;;;7.22;1.75;;;;;;;;;;5014419;28;21003;-90
2023/01/07 02:50:33;;;;;;;9.23;2.30;;;;;;;;;;5015590;28;20076;-91
2023/01/07 02:52:58;;;;;;;6.28;2.00;;;;;;;;;;5014062;28;20651;-90
2023/01/07 02:55:34;;;;;;;9.18;2.00;;;;;;;;;;5016239;28;20560;-90
2023/01/07 02:57:59;;;;;;;8.52;2.50;;;;;;;;;;5011794;28;20026;-90
2023/01/07 03:03:26;;;;;;;7.20;1.80;;;;;;;;;;5228037;23;20729;-94
2023/01/07 03:06:11;;;;;;;6.93;1.63;;;;;;;;;;5014337;28;20025;-95
2023/01/07 03:08:52;;;;;;;6.20;1.80;;;;;;;;;;5024176;28;20029;-96
2023/01/07 03:11:26;;;;;;;8.43;1.67;;;;;;;;;;5012350;28;20113;-95
2023/01/07 03:14:08;;;;;;;6.43;1.55;;;;;;;;;;5029649;28;20013;-95
2023/01/07 03:16:42;;;;;;;7.43;1.52;;;;;;;;;;5004992;28;20463;-93
2023/01/07 03:19:15;;;;;;;10.38;1.80;;;;;;;;;;5000603;28;20025;-94
2023/01/07 03:21:41;;;;;;;8.07;1.70;;;;;;;;;;5007465;28;20037;-94
2023/01/07 03:24:15;;;;;;;7.57;1.30;;;;;;;;;;5006585;28;20397;-95
2023/01/07 03:26:51;;;;;;;9.25;1.27;;;;;;;;;;4999990;28;20061;-96
2023/01/07 03:29:20;;;;;;;6.80;1.40;;;;;;;;;;5003761;28;20029;-95
2023/01/07 03:31:55;;;;;;;5.70;1.30;;;;;;;;;;5008796;28;20026;-95
2023/01/07 03:34:24;;;;;;;5.75;1.42;;;;;;;;;;5015250;28;20026;-96
2023/01/07 03:36:55;;;;;;;6.20;1.38;;;;;;;;;;5018500;28;20380;-95
2023/01/07 03:39:34;;;;;;;3.78;1.17;;;;;;;;;;5013030;28;20083;-95
2023/01/07 03:44:56;;;;;;;7.88;1.70;;;;;;;;;;5036099;28;20033;-96
2023/01/07 03:47:29;;;;;;;5.82;1.30;;;;;;;;;;5008968;28;20108;-96
2023/01/07 03:49:57;;;;;;;5.15;1.40;;;;;;;;;;5013094;28;20028;-95
2023/01/07 03:52:25;;;;;;;5.78;1.60;;;;;;;;;;5008060;28;20117;-96
2023/01/07 03:54:54;;;;;;;8.25;1.75;;;;;;;;;;5011821;28;20096;-95
2023/01/07 03:57:25;;;;;;;7.68;1.52;;;;;;;;;;5007864;28;20048;-95
2023/01/07 03:59:51;;;;;;;5.90;1.40;;;;;;;;;;5011434;28;20017;-96
2023/01/07 04:02:28;;;;;;;9.10;1.60;;;;;;;;;;5011253;28;20053;-96
2023/01/07 04:05:03;;;;;;;6.88;1.40;;;;;;;;;;5012253;28;20025;-95
2023/01/07 04:07:28;;;;;;;6.63;1.48;;;;;;;;;;5032800;28;20013;-94
2023/01/07 04:09:56;;;;;;;7.80;1.30;;;;;;;;;;5026989;28;20021;-95
2023/01/07 04:12:25;;;;;;;5.82;1.30;;;;;;;;;;5007814;28;20098;-96
2023/01/07 04:14:50;;;;;;;6.18;1.50;;;;;;;;;;4998841;28;20786;-96
2023/01/07 04:17:17;;;;;;;9.05;1.45;;;;;;;;;;5004016;28;20025;-95
2023/01/07 04:19:48;;;;;;;5.30;1.20;;;;;;;;;;5004531;28;20409;-96
2023/01/07 04:22:16;;;;;;;5.40;1.40;;;;;;;;;;5003285;28;20017;-95
2023/01/07 04:24:41;;;;;;;4.00;1.05;;;;;;;;;;5005851;28;20159;-96
2023/01/07 04:27:10;;;;;;;6.13;1.00;;;;;;;;;;5028624;28;20093;-96
2023/01/07 04:29:37;;;;;;;7.50;1.20;;;;;;;;;;5019666;28;20108;-94
2023/01/07 04:32:03;;;;;;;7.32;1.48;;;;;;;;;;5005188;28;20026;-93
2023/01/07 04:34:44;;;;;;;6.55;1.58;;;;;;;;;;5002237;28;20034;-96
2023/01/07 04:37:15;;;;;;;9.43;1.67;;;;;;;;;;5017035;28;20065;-95
2023/01/07 04:39:40;;;;;;;8.90;1.58;;;;;;;;;;5012419;28;20025;-95
2023/01/07 04:42:09;;;;;;;8.27;1.80;;;;;;;;;;5012637;28;20380;-94
2023/01/07 04:44:34;;;;;;;6.07;1.17;;;;;;;;;;4999998;28;20030;-96
2023/01/07 04:47:06;;;;;;;7.28;1.50;;;;;;;;;;5001477;28;20026;-95
2023/01/07 04:50:03;;;;;;;9.07;2.25;;;;;;;;;;5009965;28;20021;-95
2023/01/07 04:52:29;;;;;;;7.82;1.60;;;;;;;;;;5005810;28;20546;-96
2023/01/07 04:55:09;;;;;;;6.72;1.40;;;;;;;;;;5007352;28;20026;-95
2023/01/07 04:57:44;;;;;;;6.97;1.58;;;;;;;;;;5007667;28;20096;-95
2023/01/07 05:00:13;;;;;;;5.25;1.33;;;;;;;;;;5007190;28;20022;-95
2023/01/07 05:02:54;;;;;;;8.27;1.95;;;;;;;;;;5001301;28;20061;-96
2023/01/07 05:05:21;;;;;;;6.85;1.70;;;;;;;;;;5007445;28;20380;-95
2023/01/07 05:08:03;;;;;;;7.00;1.23;;;;;;;;;;5002044;28;20021;-96
2023/01/07 05:10:31;;;;;;;5.68;1.45;;;;;;;;;;5003225;28;20029;-96
2023/01/07 05:13:06;;;;;;;6.30;1.38;;;;;;;;;;5002340;28;20030;-96
2023/01/07 05:15:48;;;;;;;6.07;1.23;;;;;;;;;;5010711;28;20037;-96
2023/01/07 05:18:17;;;;;;;6.93;1.30;;;;;;;;;;5001089;28;20523;-96
2023/01/07 05:20:51;;;;;;;5.75;1.40;;;;;;;;;;5010437;28;20274;-95
2023/01/07 05:23:17;;;;;;;9.70;1.55;;;;;;;;;;4999642;28;20041;-95
2023/01/07 05:25:48;;;;;;;6.35;1.40;;;;;;;;;;5006789;28;20083;-95
2023/01/07 05:28:19;;;;;;;6.00;1.30;;;;;;;;;;5015264;28;20029;-96
2023/01/07 05:30:47;;;;;;;6.30;1.13;;;;;;;;;;5012103;28;20021;-94
2023/01/07 05:33:12;;;;;;;7.63;1.40;;;;;;;;;;5008050;28;20550;-96
2023/01/07 05:35:49;;;;;;;6.28;1.50;;;;;;;;;;5020949;28;20021;-96
2023/01/07 05:38:35;;;;;;;5.93;1.52;;;;;;;;;;5032576;28;20416;-96
2023/01/07 05:41:03;;;;;;;5.55;1.10;;;;;;;;;;5010866;28;20056;-96
2023/01/07 05:43:34;;;;;;;5.85;1.40;;;;;;;;;;5014689;28;20605;-96
2023/01/07 05:46:06;;;;;;;5.57;1.35;;;;;;;;;;5028713;28;20030;-96
2023/01/07 05:48:34;;;;;;;4.50;1.07;;;;;;;;;;5024551;28;20156;-96
2023/01/07 05:51:25;;;;;;;5.30;1.30;;;;;;;;;;5033261;28;20539;-96
2023/01/07 05:53:58;;;;;;;7.28;1.30;;;;;;;;;;5023072;28;20163;-96
2023/01/07 05:56:37;;;;;;;6.75;1.45;;;;;;;;;;5014571;28;20037;-95
2023/01/07 05:59:03;;;;;;;4.43;0.98;;;;;;;;;;5012639;28;20042;-96
2023/01/07 06:01:32;;;;;;;4.25;1.08;;;;;;;;;;5011020;28;20096;-96
2023/01/07 06:04:08;;;;;;;7.38;1.25;;;;;;;;;;5034455;28;20099;-96
2023/01/07 06:09:27;;;;;;;6.38;1.40;;;;;;;;;;5021561;28;20091;-96
2023/01/07 06:11:56;;;;;;;4.80;1.00;;;;;;;;;;5014266;28;20029;-96
2023/01/07 06:14:26;;;;;;;6.00;1.42;;;;;;;;;;5007641;28;20021;-96
2023/01/07 06:16:58;;;;;;;7.43;1.40;;;;;;;;;;5014064;28;20061;-96
2023/01/07 06:19:29;;;;;;;7.47;1.40;;;;;;;;;;5006777;28;20033;-96
2023/01/07 06:22:08;;;;;;;6.93;1.20;;;;;;;;;;5016377;28;20022;-96
2023/01/07 06:24:34;;;;;;;7.32;1.58;;;;;;;;;;5010628;28;20034;-96
2023/01/07 06:27:15;;;;;;;9.45;1.52;;;;;;;;;;5003226;28;20056;-96
2023/01/07 06:29:42;;;;;;;16.63;2.30;;;;;;;;;;5017134;28;20045;-96
2023/01/07 06:32:08;;;;;;;7.15;1.50;;;;;;;;;;5007482;28;20030;-96
2023/01/07 06:34:43;;;;;;;6.72;1.48;;;;;;;;;;5011024;28;20021;-96
2023/01/07 06:37:18;;;;;;;6.00;1.35;;;;;;;;;;5011172;28;20025;-96
2023/01/07 06:39:46;;;;;;;5.40;1.27;;;;;;;;;;5019438;28;20032;-96
2023/01/07 06:42:41;;;;;;;5.40;1.30;;;;;;;;;;5014467;28;20538;-96
2023/01/07 06:45:38;;;;;;;5.45;1.30;;;;;;;;;;5020812;28;20053;-96
2023/01/07 06:48:42;;;;;;;5.82;1.38;;;;;;;;;;5038302;28;20022;-96
2023/01/07 06:54:12;;;;;;;7.63;1.30;;;;;;;;;;4941569;29;19911;-96
2023/01/07 06:56:49;;;;;;;7.38;1.60;;;;;;;;;;4932495;29;20070;-96
2023/01/07 07:02:15;;;;;;;6.30;1.40;;;;;;;;;;4183894;26;20050;-92
2023/01/07 07:04:53;;;;;;;7.68;1.83;;;;;;;;;;4988498;28;20076;-93
2023/01/07 07:07:18;;;;;;;8.63;1.58;;;;;;;;;;4987732;28;20073;-93
2023/01/07 07:09:44;;;;;;;7.38;1.70;;;;;;;;;;4972054;28;20022;-93
2023/01/07 07:12:19;;;;;;;10.77;1.50;;;;;;;;;;4988355;28;20030;-93
2023/01/07 07:14:44;;;;;;;5.93;1.25;;;;;;;;;;4966842;28;20062;-93
2023/01/07 07:17:12;;;;;;;7.97;1.38;;;;;;;;;;4984840;28;20068;-93
2023/01/07 07:19:42;;;;;;;7.18;1.75;;;;;;;;;;4978614;28;20026;-93
2023/01/07 07:22:08;;;;;;;9.80;1.73;;;;;;;;;;4978083;28;20027;-93
2023/01/07 07:24:36;;;;;;;9.00;1.70;;;;;;;;;;4967663;28;20371;-92
2023/01/07 07:27:02;;;;;;;5.50;1.50;;;;;;;;;;4971276;28;20022;-93
2023/01/07 07:29:27;;;;;;;9.05;1.90;;;;;;;;;;4967381;28;20042;-93
2023/01/07 07:31:55;;;;;;;6.28;1.67;;;;;;;;;;4962145;28;20027;-93
2023/01/07 07:34:26;;;;;;;8.75;1.75;;;;;;;;;;4969316;28;20042;-93
2023/01/07 07:36:57;;;;;;;7.15;1.75;;;;;;;;;;4965308;28;20022;-94
2023/01/07 07:39:26;;;;;;;10.15;1.80;;;;;;;;;;4958580;28;20022;-94
2023/01/07 07:41:52;;;;;;;8.80;1.55;;;;;;;;;;4961482;28;20616;-94
2023/01/07 07:44:17;;;;;;;9.32;1.70;;;;;;;;;;4964775;28;20034;-93
2023/01/07 07:46:43;;;;;;;6.78;1.88;;;;;;;;;;4967385;28;20076;-94
2023/01/07 07:49:27;;;;;;;8.77;1.50;;;;;;;;;;4965631;28;20030;-94
2023/01/07 07:51:58;;;;;;;6.07;1.55;;;;;;;;;;4969893;28;20034;-95
2023/01/07 07:54:27;;;;;;;7.40;1.60;;;;;;;;;;4984949;28;20043;-94
2023/01/07 07:57:24;;;;;;;10.02;1.77;;;;;;;;;;4987960;28;20030;-93
2023/01/07 08:00:08;;;;;;;7.68;1.60;;;;;;;;;;4964850;28;20093;-96
2023/01/07 08:02:41;;;;;;;7.18;1.60;;;;;;;;;;4978089;28;20042;-95
2023/01/07 08:05:06;;;;;;;;;;;;;;;;;;4973095;28;20026;-96
2023/01/07 08:08:11;;;;;;;5.27;1.47;;;;;;;;;;4973130;28;19960;-95
2023/01/07 08:10:43;;;;;;;5.85;1.40;;;;;;;;;;4972302;28;20030;-94
2023/01/07 08:13:09;;;;;;;5.13;1.30;;;;;;;;;;4972201;28;20018;-94
2023/01/07 08:15:42;;;;;;;4.85;1.10;;;;;;;;;;4962375;28;20150;-94
2023/01/07 08:18:35;;;;;;;5.93;1.52;;;;;;;;;;4966809;28;20140;-95
2023/01/07 08:21:16;;;;;;;5.85;1.33;;;;;;;;;;4965409;28;20676;-95
2023/01/07 08:24:15;;;;;;;7.28;1.80;;;;;;;;;;4980629;28;20565;-94
2023/01/07 08:26:55;;;;;;;;;;;;;;;;;;;;;
2023/01/07 08:29:32;;;;;;;8.05;1.70;;;;;;;;;;4978352;28;20044;-95
2023/01/07 08:32:11;;;;;;;6.57;1.48;;;;;;;;;;4966384;28;20041;-95
2023/01/07 08:34:47;;;;;;;6.18;1.30;;;;;;;;;;4968741;28;20050;-95
2023/01/07 08:37:20;;;;;;;6.50;1.55;;;;;;;;;;4955734;28;20158;-93
2023/01/07 08:39:46;;;;;;;;;;;;;;;;;;4968850;28;20031;-94
2023/01/07 08:42:17;;;;;;;6.30;1.80;;;;;;;;;;4960640;28;19918;-93
2023/01/07 08:45:02;;;;;;;6.97;1.63;;;;;;;;;;4986477;28;20113;-94
2023/01/07 08:47:51;;;;;;;6.22;1.30;;;;;;;;;;4974312;28;20023;-93
2023/01/07 08:50:24;;;;;;;7.25;1.40;;;;;;;;;;4972503;28;20088;-94
2023/01/07 08:52:56;;;;;;;7.30;1.30;;;;;;;;;;4970795;28;20037;-94
2023/01/07 08:58:27;;;;;;;7.05;1.35;;;;;;;;;;4982937;28;20132;-94
2023/01/07 09:01:10;;;;;;;5.45;1.15;;;;;;;;;;4976934;28;20486;-96
2023/01/07 09:04:01;;;;;;;;;;;;;;;;;;;;;
2023/01/07 09:09:45;;;;;;;6.50;1.07;;;;;;;;;;4996157;28;20118;-96
2023/01/07 09:12:14;;;;;;;5.60;1.25;;;;;;;;;;4981104;28;20280;-96
2023/01/07 09:14:41;;;;;;;4.43;0.90;;;;;;;;;;4986303;28;20019;-96
2023/01/07 09:17:07;;;;;;;4.75;0.93;;;;;;;;;;4976738;28;20069;-96
2023/01/07 09:19:37;;;;;;;5.57;1.05;;;;;;;;;;4978038;28;20023;-96
2023/01/07 09:22:10;;;;;;;3.65;0.90;;;;;;;;;;4975358;28;20104;-96
2023/01/07 09:27:44;;;;;;;3.08;0.77;;;;;;;;;;4998431;28;19993;-96
2023/01/07 09:30:28;;;;;;;4.40;0.85;;;;;;;;;;4988141;28;20027;-96
2023/01/07 09:32:59;;;;;;;3.38;0.90;;;;;;;;;;4985023;28;20037;-96
2023/01/07 09:35:41;;;;;;;5.75;1.08;;;;;;;;;;4995651;28;20262;-96
2023/01/07 09:38:08;;;;;;;4.30;1.00;;;;;;;;;;4975882;28;20054;-96
2023/01/07 09:40:46;;;;;;;5.72;1.30;;;;;;;;;;4990135;28;20054;-96
2023/01/07 09:43:37;;;;;;;5.85;1.55;;;;;;;;;;4992584;28;20049;-96
2023/01/07 09:46:04;;;;;;;6.55;1.20;;;;;;;;;;4972107;28;20022;-96
2023/01/07 09:48:44;;;;;;;3.83;0.90;;;;;;;;;;4985142;28;20030;-96
2023/01/07 09:54:03;;;;;;;5.20;0.82;;;;;;;;;;4986350;28;20490;-96
2023/01/07 09:56:47;;;;;;;3.20;0.90;;;;;;;;;;4975053;28;20040;-96
2023/01/07 09:59:13;;;;;;;5.18;0.88;;;;;;;;;;4966161;28;20018;-96
2023/01/07 10:02:09;;;;;;;3.83;0.80;;;;;;;;;;4961923;28;20045;-96
2023/01/07 10:05:02;;;;;;;4.10;0.90;;;;;;;;;;4890120;29;20052;-96
2023/01/07 10:08:01;;;;;;;3.85;0.80;;;;;;;;;;4891496;29;20029;-96
2023/01/07 10:14:02;;;;;;;6.22;1.40;;;;;;;;;;4887260;29;20135;-96
2023/01/07 10:16:37;;;;;;;6.72;1.27;;;;;;;;;;4895470;29;20025;-96
2023/01/07 10:19:44;;;;;;;6.93;1.20;;;;;;;;;;4895628;29;20029;-94
2023/01/07 10:22:33;;;;;;;4.97;1.20;;;;;;;;;;4889705;29;20035;-95
2023/01/07 10:25:37;;;;;;;8.82;1.40;;;;;;;;;;4890147;29;20041;-95
2023/01/07 10:28:21;;;;;;;8.73;1.58;;;;;;;;;;4893317;29;20028;-96
2023/01/07 10:31:05;;;;;;;6.75;1.35;;;;;;;;;;4884448;29;20123;-96
2023/01/07 10:33:42;;;;;;;9.00;1.80;;;;;;;;;;4888681;29;20047;-96
2023/01/07 10:36:37;;;;;;;8.02;1.75;;;;;;;;;;4877339;29;20530;-95
2023/01/07 10:39:31;;;;;;;;;;;;;;;;;;;;;
2023/01/07 10:42:26;;;;;;;;;;;;;;;;;;;;;
2023/01/07 10:45:10;;;;;;;7.35;1.98;;;;;;;;;;4981085;28;20035;-96
2023/01/07 10:51:01;;;;;;;10.15;1.60;;;;;;;;;;4977280;28;20034;-95
2023/01/07 10:53:28;;;;;;;5.82;1.30;;;;;;;;;;4967052;28;20114;-96
2023/01/07 10:56:27;;;;;;;;;;;;;;;;;;;;;
2023/01/07 11:02:03;;;;;;;6.60;1.60;;;;;;;;;;4984909;28;20049;-96
2023/01/07 11:04:31;;;;;;;7.35;1.45;;;;;;;;;;4996017;28;20042;-96
2023/01/07 11:07:06;;;;;;;7.78;1.70;;;;;;;;;;4976647;28;20036;-95
2023/01/07 11:09:50;;;;;;;7.93;1.52;;;;;;;;;;4983919;28;20026;-96
2023/01/07 11:12:29;;;;;;;10.80;1.52;;;;;;;;;;4991156;28;20026;-96
2023/01/07 11:15:09;;;;;;;;;;;;;;;;;;;;;
2023/01/07 11:17:51;;;;;;;8.52;1.58;;;;;;;;;;4997130;28;20121;-96
2023/01/07 11:20:44;;;;;;;7.50;1.17;;;;;;;;;;4970534;28;20053;-96
2023/01/07 11:23:32;;;;;;;11.13;1.20;;;;;;;;;;4977388;28;20072;-96
2023/01/07 11:26:29;;;;;;;7.70;1.35;;;;;;;;;;4967009;28;20030;-96
2023/01/07 11:29:18;;;;;;;8.77;1.27;;;;;;;;;;4972389;28;20042;-96
2023/01/07 11:32:19;;;;;;;6.15;1.50;;;;;;;;;;4992359;28;20034;-96
2023/01/07 11:35:20;;;;;;;7.07;1.30;;;;;;;;;;4964235;28;20117;-96
2023/01/07 11:37:49;;;;;;;6.90;1.30;;;;;;;;;;4965881;28;20488;-96
2023/01/07 11:40:18;;;;;;;5.20;1.23;;;;;;;;;;4987250;28;20038;-96
2023/01/07 11:46:24;;;;;;;6.35;1.23;;;;;;;;;;4977937;28;20035;-96
2023/01/07 11:48:56;;;;;;;9.73;1.17;;;;;;;;;;4968176;28;20478;-96
2023/01/07 11:51:48;;;;;;;8.38;1.40;;;;;;;;;;4971465;28;20074;-96
2023/01/07 11:54:26;;;;;;;6.32;1.33;;;;;;;;;;4967535;28;20122;-96
2023/01/07 11:56:52;;;;;;;4.25;0.95;;;;;;;;;;4970429;28;20035;-96
2023/01/07 11:59:30;;;;;;;;;;;;;;;;;;;;;
2023/01/07 12:02:01;;;;;;;8.85;1.33;;;;;;;;;;4983599;28;20034;-96
2023/01/07 12:04:57;;;;;;;6.88;1.50;;;;;;;;;;4974439;28;20042;-96
2023/01/07 12:07:26;;;;;;;5.75;1.30;;;;;;;;;;4952372;28;20034;-96
2023/01/07 12:10:37;;;;;;;6.22;1.25;;;;;;;;;;4966328;28;20470;-96
2023/01/07 12:13:16;;;;;;;8.48;1.20;;;;;;;;;;4977761;28;20043;-96
2023/01/07 12:16:11;;;;;;;7.32;1.10;;;;;;;;;;4975997;28;20031;-96
2023/01/07 12:18:58;;;;;;;7.07;1.20;;;;;;;;;;4953585;28;20046;-96
2023/01/07 12:21:54;;;;;;;;;;;;;;;;;;;;;
2023/01/07 12:24:49;;;;;;;3.83;0.85;;;;;;;;;;4996025;28;20038;-96
2023/01/07 12:27:42;;;;;;;6.63;1.08;;;;;;;;;;4993859;28;20034;-96
2023/01/07 12:33:33;;;;;;;3.45;0.75;;;;;;;;;;4996751;28;20532;-96
2023/01/07 12:36:24;;;;;;;4.40;0.90;;;;;;;;;;4974881;28;20034;-96
2023/01/07 12:39:06;;;;;;;4.43;0.63;;;;;;;;;;4975803;28;20041;-96
2023/01/07 12:41:40;;;;;;;5.38;0.80;;;;;;;;;;4997565;28;20051;-96
2023/01/07 12:44:38;;;;;;;3.28;0.73;;;;;;;;;;5034030;23;20045;-95
2023/01/07 12:47:27;;;;;;;4.55;0.88;;;;;;;;;;4945352;29;20049;-96
2023/01/07 13:17:35;;;;;;;3.60;0.63;;;;;;;-146.73;56.53;46025.19;5887745;22;6488289;-96
2023/01/07 13:20:01;;;;;;;3.33;0.60;;;;;;;-146.73;57.40;45918.66;6097615;23;20117;-95
2023/01/07 13:22:35;;;;;;;3.75;0.90;;;;;;;-146.73;56.75;45962.06;6077979;23;20052;-95
2023/01/07 13:25:17;;;;;;;2.60;0.40;;;;;;;-146.73;57.34;46025.19;6104152;23;20022;-95
2023/01/07 13:27:57;;;;;;;5.38;0.50;;;;;;;-146.73;55.51;46064.66;6109144;23;20489;-96
2023/01/07 13:30:47;;;;;;;2.80;0.60;;;;;;;-146.73;55.74;46031.09;6080942;23;20010;-96
2023/01/07 13:33:38;;;;;;;2.17;0.50;;;;;;;-146.73;53.30;46027.16;6086121;23;20010;-96
2023/01/07 13:36:43;;;;;;;4.97;0.70;;;;;;;-146.73;54.42;46062.66;6076595;23;20045;-95
2023/01/07 13:39:44;;;;;;;2.65;0.50;;;;;;;-146.73;54.04;45918.66;6076314;23;20021;-95
2023/01/07 13:42:42;;;;;;;4.68;0.80;;;;;;;-146.73;53.72;46003.47;6043793;23;20019;-95
2023/01/07 13:45:27;;;;;;;5.47;0.85;;;;;;;-146.73;54.12;46031.09;6031516;23;20485;-95
2023/01/07 13:55:20;;;;;;;;;;;;;;;;;;;;;
2023/01/07 13:58:01;;;;;;;2.80;0.47;;;;;;;-146.73;56.13;45928.50;6074705;23;20093;-93
2023/01/07 14:01:05;;;;;;;3.40;0.65;;;;;;;-146.73;56.53;45952.19;6100813;23;20026;-94
2023/01/07 14:08:02;;;;;;;3.13;0.70;;;;;;;-146.73;53.52;46084.38;6042320;23;20067;-94
2023/01/07 14:24:38;;;;;;;2.60;0.60;;;;;;;-146.73;55.17;45967.97;5872670;24;20484;-95
2023/01/07 14:30:58;;;;;;;3.97;0.50;;;;;;;-146.73;55.16;45887.09;5848461;24;20021;-95
2023/01/07 14:33:57;;;;;;;3.13;0.57;;;;;;;-146.73;55.45;45932.47;5841918;24;20534;-95
2023/01/07 14:37:07;;;;;;;6.28;0.75;;;;;;;-146.73;54.89;45958.09;5837901;24;20010;-94
2023/01/07 14:39:55;;;;;;;4.22;0.68;;;;;;;-146.73;54.49;45979.81;5838896;24;20014;-95
2023/01/07 14:42:41;;;;;;;3.60;0.65;;;;;;;-146.73;53.25;45991.66;5852117;23;20014;-92
2023/01/07 14:45:40;;;;;;;4.55;0.68;;;;;;;-146.73;53.67;45950.22;6103229;23;20024;-96
2023/01/07 14:48:26;;;;;;;6.68;1.00;;;;;;;-146.73;54.21;45908.78;6108593;23;20041;-96
2023/01/07 14:51:26;;;;;;;3.42;0.68;;;;;;;-146.73;54.87;45964.03;6110133;23;20041;-92
2023/01/07 14:54:04;;;;;;;5.32;0.82;;;;;;;-146.73;52.29;46078.44;6103649;23;20006;-96
2023/01/07 14:56:48;;;;;;;4.32;1.30;;;;;;;-146.73;53.26;46019.25;6102588;23;20005;-96
2023/01/07 14:59:27;;;;;;;3.40;0.85;;;;;;;-146.73;54.18;46011.38;6102645;23;20010;-96
2023/01/07 15:02:32;;;;;;;4.55;0.80;;;;;;;-146.73;55.58;46001.50;6102702;23;20013;-96
2023/01/07 15:05:30;;;;;;;7.22;0.98;;;;;;;-146.73;54.72;46013.34;6101890;23;20045;-96
2023/01/07 15:16:16;;;;;;;4.50;0.70;;;;;;;-146.73;55.13;45948.25;6133154;23;20033;-96
2023/01/07 15:18:54;;;;;;;7.15;1.00;;;;;;;-146.73;56.47;45896.94;6145523;23;20105;-96
2023/01/07 15:21:57;;;;;;;3.10;0.75;;;;;;;-146.73;54.69;45948.25;6125236;23;20051;-93
2023/01/07 15:27:13;;;;;;;4.78;0.80;;;;;;;-146.73;54.75;45887.09;6150261;23;20406;-94
2023/01/07 15:30:23;;;;;;;;;;;;;;;;;;;;;
2023/01/07 15:36:47;;;;;;;6.38;0.95;;;;;;;-146.73;50.82;46070.56;6073456;23;20017;-94
2023/01/07 15:39:51;;;;;;;7.65;1.17;;;;;;;-146.73;49.30;46188.94;6048252;23;20015;-96
2023/01/07 15:56:53;;;;;;;;;;;;;;;;;;;;;
2023/01/07 15:59:56;;;;;;;4.18;0.68;;;;;;;-146.73;52.42;46037.03;6122367;23;20013;-96
2023/01/07 16:02:37;;;;;;;4.03;0.90;;;;;;;-146.73;52.16;45932.47;6172418;23;20086;-96
2023/01/07 16:05:05;;;;;;;3.65;0.70;;;;;;;-146.73;52.63;45964.03;6163338;23;20005;-96
2023/01/07 16:07:54;;;;;;;5.05;0.80;;;;;;;-146.73;53.12;45964.03;6171369;23;20009;-95
2023/01/07 16:10:26;;;;;;;6.68;0.80;;;;;;;-146.73;54.88;45879.19;6164296;23;20389;-95
2023/01/07 16:12:58;;;;;;;6.13;0.70;;;;;;;-146.73;52.80;45944.28;6158797;23;20020;-92
2023/01/07 16:15:30;;;;;;;4.53;0.70;;;;;;;-146.73;53.97;45936.41;6157135;23;20016;-93
2023/01/07 16:18:03;;;;;;;4.97;0.80;;;;;;;-146.73;53.69;45946.28;6155306;23;20016;-96
2023/01/07 16:20:42;;;;;;;6.30;1.05;;;;;;;-146.73;53.29;45948.25;6154612;23;20701;-96
2023/01/07 16:23:21;;;;;;;5.10;0.90;;;;;;;-146.73;53.52;45934.44;6158246;23;20092;-94
2023/01/07 16:26:14;;;;;;;3.53;0.60;;;;;;;-146.73;53.86;45948.25;6155721;23;20013;-95
2023/01/07 16:28:56;;;;;;;4.70;0.77;;;;;;;-146.73;55.93;45833.81;6155758;23;19997;-95
2023/01/07 16:31:24;;;;;;;4.20;0.90;;;;;;;-146.73;52.83;45993.63;6153496;23;20509;-94
2023/01/07 16:33:56;;;;;;;5.68;0.90;;;;;;;-146.73;51.35;46086.34;6154737;23;20311;-95
2023/01/07 16:36:38;;;;;;;3.90;0.73;;;;;;;-146.73;51.44;45999.53;6155363;23;19997;-95
2023/01/07 16:39:16;;;;;;;4.28;0.68;;;;;;;-146.73;51.60;45999.53;6184150;23;20587;-93
2023/01/07 16:41:46;;;;;;;5.07;0.90;;;;;;;-146.73;51.31;45999.53;6155404;23;20059;-94
2023/01/07 16:44:41;;;;;;;5.72;0.90;;;;;;;-146.73;50.64;46007.44;6158291;23;20032;-95
2023/01/07 16:47:16;;;;;;;5.70;1.23;;;;;;;-146.73;51.56;45950.22;6156402;23;20148;-94
2023/01/07 16:49:45;;;;;;;6.13;1.02;;;;;;;-146.73;54.68;45887.09;6157767;23;20005;-94
2023/01/07 16:52:31;;;;;;;5.15;0.80;;;;;;;-146.73;53.73;45928.50;6158172;23;20005;-95
2023/01/07 16:55:00;;;;;;;6.45;1.25;;;;;;;-146.73;54.75;45879.19;6157980;23;20012;-94
2023/01/07 16:57:46;;;;;;;7.95;1.10;;;;;;;-146.73;55.52;45934.44;6156664;23;20009;-94
2023/01/07 17:00:18;;;;;;;5.40;0.90;;;;;;;-146.73;59.40;45849.59;6158225;23;20008;-94
2023/01/07 17:03:00;;;;;;;9.55;1.20;;;;;;;-146.73;62.27;45804.22;6189024;23;20020;-94
2023/01/07 17:05:29;;;;;;;6.20;1.00;;;;;;;-146.73;63.92;45800.28;6155128;23;20028;-95
2023/01/07 17:08:04;;;;;;;8.35;1.13;;;;;;;-146.73;62.21;45837.75;6154489;23;20036;-93
2023/01/07 17:10:34;;;;;;;2.38;0.60;;;;;;;-146.73;68.45;45792.38;6156352;23;20036;-94